createdAt,value
2024-02-21T00:00:57.964Z,4.25
2024-02-21T00:04:20.876Z,5.35
2024-02-21T00:07:24.293Z,7.57
2024-02-21T00:10:27.261Z,3.95
2024-02-21T00:13:29.980Z,7.70
2024-02-21T00:16:32.378Z,4.35
2024-02-21T00:19:35.508Z,4.38
2024-02-21T00:22:38.083Z,5.70
2024-02-21T00:25:41.688Z,9.20
2024-02-21T00:28:44.112Z,9.30
2024-02-21T00:31:46.892Z,6.45
2024-02-21T00:34:49.235Z,6.20
2024-02-21T00:37:53.282Z,5.95
2024-02-21T00:40:55.721Z,4.13
2024-02-21T00:43:58.556Z,5.13
2024-02-21T00:47:00.788Z,7.00
2024-02-21T00:50:04.003Z,3.50
2024-02-21T00:53:07.132Z,6.03
2024-02-21T00:56:09.735Z,4.32
2024-02-21T00:59:11.863Z,5.45
2024-02-21T01:02:14.453Z,5.40
2024-02-21T01:05:16.754Z,5.88
2024-02-21T01:08:19.600Z,9.18
2024-02-21T01:11:22.093Z,7.03
2024-02-21T01:14:24.773Z,7.72
2024-02-21T01:17:27.131Z,7.68
2024-02-21T01:20:29.729Z,6.40
2024-02-21T01:23:31.855Z,6.43
2024-02-21T01:26:34.470Z,7.03
2024-02-21T01:29:37.141Z,7.22
2024-02-21T01:32:39.983Z,7.68
2024-02-21T01:35:42.390Z,5.63
2024-02-21T01:38:45.393Z,8.07
2024-02-21T01:41:47.508Z,7.63
2024-02-21T01:44:50.076Z,3.05
2024-02-21T01:47:52.366Z,9.32
2024-02-21T01:50:56.968Z,7.15
2024-02-21T01:54:00.022Z,6.57
2024-02-21T01:57:03.405Z,3.77
2024-02-21T02:00:06.765Z,6.70
2024-02-21T02:03:20.398Z,4.95
2024-02-21T02:06:23.334Z,6.90
2024-02-21T02:09:25.942Z,6.20
2024-02-21T02:12:28.285Z,4.55
2024-02-21T02:15:40.479Z,6.00
2024-02-21T02:18:42.875Z,9.60
2024-02-21T02:21:57.211Z,10.02
2024-02-21T02:24:59.846Z,3.75
2024-02-21T02:28:02.500Z,6.82
2024-02-21T02:31:05.114Z,8.05
2024-02-21T02:34:07.723Z,6.03
2024-02-21T02:37:10.041Z,9.57
2024-02-21T02:40:14.067Z,8.05
2024-02-21T02:43:16.581Z,6.13
2024-02-21T02:46:19.756Z,5.65
2024-02-21T02:49:22.469Z,5.50
2024-02-21T02:52:25.125Z,5.85
2024-02-21T02:55:28.039Z,7.35
2024-02-21T02:58:30.839Z,6.80
2024-02-21T03:01:35.720Z,6.22
2024-02-21T03:04:41.097Z,7.82
2024-02-21T03:07:44.126Z,3.90
2024-02-21T03:10:46.906Z,9.30
2024-02-21T03:13:49.221Z,5.45
2024-02-21T03:16:53.424Z,10.02
2024-02-21T03:20:01.633Z,10.15
2024-02-21T03:23:04.820Z,8.13
2024-02-21T03:26:07.113Z,7.38
2024-02-21T03:29:12.902Z,10.65
2024-02-21T03:32:15.002Z,4.30
2024-02-21T03:35:17.739Z,6.68
2024-02-21T03:38:20.552Z,5.40
2024-02-21T03:41:23.626Z,10.57
2024-02-21T03:44:25.857Z,8.23
2024-02-21T03:47:28.452Z,6.60
2024-02-21T03:50:31.035Z,5.25
2024-02-21T03:53:33.696Z,5.82
2024-02-21T03:56:39.265Z,8.60
2024-02-21T03:59:44.631Z,5.70
2024-02-21T04:02:47.963Z,8.15
2024-02-21T04:05:50.908Z,4.65
2024-02-21T04:08:53.435Z,7.13
2024-02-21T04:11:56.214Z,5.38
2024-02-21T04:14:58.326Z,5.70
2024-02-21T04:18:00.952Z,7.53
2024-02-21T04:21:03.588Z,6.53
2024-02-21T04:24:07.278Z,6.60
2024-02-21T04:27:09.953Z,6.18
2024-02-21T04:30:12.830Z,7.45
2024-02-21T04:33:15.171Z,5.78
2024-02-21T04:36:18.765Z,8.60
2024-02-21T04:39:21.128Z,4.68
2024-02-21T04:42:24.070Z,5.00
2024-02-21T04:45:26.358Z,5.60
2024-02-21T04:48:29.018Z,10.57
2024-02-21T04:51:31.212Z,5.95
2024-02-21T04:54:33.826Z,3.65
2024-02-21T04:57:36.046Z,6.35
2024-02-21T05:00:39.082Z,5.13
2024-02-21T05:03:41.453Z,5.15
2024-02-21T05:06:44.176Z,5.47
2024-02-21T05:09:47.008Z,3.33
2024-02-21T05:12:51.494Z,8.68
2024-02-21T05:15:53.705Z,8.63
2024-02-21T05:18:57.776Z,6.00
2024-02-21T05:22:02.981Z,4.77
2024-02-21T05:25:06.228Z,4.00
2024-02-21T05:28:08.644Z,6.97
2024-02-21T05:31:11.313Z,9.90
2024-02-21T05:34:13.867Z,5.15
2024-02-21T05:37:16.656Z,7.63
2024-02-21T05:40:19.031Z,4.55
2024-02-21T05:43:21.603Z,9.60
2024-02-21T05:46:24.155Z,6.70
2024-02-21T05:49:27.029Z,5.25
2024-02-21T05:52:29.258Z,4.80
2024-02-21T05:55:31.828Z,3.90
2024-02-21T05:58:34.062Z,7.18
2024-02-21T06:01:37.220Z,5.25
2024-02-21T06:04:41.059Z,13.20
2024-02-21T06:07:44.093Z,10.60
2024-02-21T06:10:46.710Z,7.07
2024-02-21T06:13:49.580Z,5.88
2024-02-21T06:16:52.411Z,6.63
2024-02-21T06:19:55.058Z,3.80
2024-02-21T06:22:57.283Z,8.45
2024-02-21T06:26:00.885Z,5.75
2024-02-21T06:29:03.976Z,5.40
2024-02-21T06:32:07.050Z,5.88
2024-02-21T06:35:09.624Z,12.88
2024-02-21T06:38:13.002Z,2.40
2024-02-21T06:41:20.340Z,4.55
2024-02-21T06:44:23.332Z,7.53
2024-02-21T06:47:26.920Z,3.72
2024-02-21T06:50:29.649Z,3.30
2024-02-21T06:53:31.835Z,2.33
2024-02-21T06:56:34.382Z,5.82
2024-02-21T06:59:36.647Z,5.55
2024-02-21T07:02:39.276Z,4.93
2024-02-21T07:05:41.611Z,3.88
2024-02-21T07:08:44.184Z,4.15
2024-02-21T07:11:47.329Z,1.98
2024-02-21T07:14:50.030Z,6.47
2024-02-21T07:17:52.283Z,3.05
2024-02-21T07:20:55.100Z,3.42
2024-02-21T07:23:57.243Z,6.38
2024-02-21T07:27:05.668Z,3.03
2024-02-21T07:30:08.465Z,6.38
2024-02-21T07:33:11.190Z,4.22
2024-02-21T07:36:13.830Z,4.15
2024-02-21T07:39:16.679Z,7.82
2024-02-21T07:42:18.865Z,5.00
2024-02-21T07:45:25.238Z,4.88
2024-02-21T07:48:28.114Z,4.78
2024-02-21T07:51:30.953Z,11.07
2024-02-21T07:54:33.248Z,3.80
2024-02-21T07:57:36.257Z,5.75
2024-02-21T08:00:38.912Z,6.10
2024-02-21T08:03:41.807Z,2.95
2024-02-21T08:06:46.678Z,3.03
2024-02-21T08:09:49.596Z,4.20
2024-02-21T08:12:51.859Z,3.63
2024-02-21T08:15:54.436Z,6.93
2024-02-21T08:18:56.880Z,4.82
2024-02-21T08:22:00.957Z,7.63
2024-02-21T08:25:03.211Z,8.63
2024-02-21T08:28:06.991Z,2.60
2024-02-21T08:31:09.068Z,4.20
2024-02-21T08:34:11.878Z,4.07
2024-02-21T08:37:14.012Z,7.78
2024-02-21T08:40:21.199Z,4.28
2024-02-21T08:43:23.595Z,5.15
2024-02-21T08:46:26.666Z,3.15
2024-02-21T08:52:35.937Z,3.97
2024-02-21T08:55:38.273Z,4.13
2024-02-21T08:58:41.665Z,7.55
2024-02-21T09:01:43.906Z,3.90
2024-02-21T09:04:46.606Z,4.05
2024-02-21T09:07:49.861Z,3.42
2024-02-21T09:10:52.800Z,4.43
2024-02-21T09:13:55.257Z,7.38
2024-02-21T09:16:58.308Z,6.47
2024-02-21T09:20:05.174Z,3.90
2024-02-21T09:23:08.972Z,5.65
2024-02-21T09:26:15.296Z,6.32
2024-02-21T09:29:18.035Z,5.47
2024-02-21T09:32:20.493Z,4.85
2024-02-21T09:35:24.816Z,8.63
2024-02-21T09:38:27.146Z,7.85
2024-02-21T09:41:29.721Z,4.22
2024-02-21T09:44:39.122Z,3.05
2024-02-21T09:47:55.711Z,7.60
2024-02-21T09:51:00.186Z,9.10
2024-02-21T09:54:15.228Z,4.45
2024-02-21T09:57:20.444Z,9.35
2024-02-21T10:00:23.482Z,3.40
2024-02-21T10:03:26.040Z,2.40
2024-02-21T10:06:29.285Z,3.38
2024-02-21T10:09:31.911Z,7.90
2024-02-21T10:12:34.842Z,5.72
2024-02-21T10:15:37.345Z,4.18
2024-02-21T10:18:40.157Z,4.90
2024-02-21T10:21:42.744Z,3.35
2024-02-21T10:24:45.876Z,4.30
2024-02-21T10:27:50.062Z,8.05
2024-02-21T10:30:53.686Z,9.02
2024-02-21T10:33:57.654Z,4.57
2024-02-21T10:37:05.418Z,6.60
2024-02-21T10:40:08.487Z,5.50
2024-02-21T10:43:14.567Z,2.53
2024-02-21T10:46:20.657Z,6.45
2024-02-21T10:49:30.649Z,6.60
2024-02-21T10:52:45.074Z,6.03
2024-02-21T10:55:57.755Z,5.30
2024-02-21T10:59:01.978Z,6.03
2024-02-21T11:02:05.652Z,3.92
2024-02-21T11:05:09.211Z,3.65
2024-02-21T11:08:12.727Z,3.97
2024-02-21T11:11:27.604Z,4.35
2024-02-21T11:14:41.105Z,4.60
2024-02-21T11:17:50.207Z,4.00
2024-02-21T11:20:53.535Z,3.53
2024-02-21T11:23:58.917Z,5.38
2024-02-21T11:27:21.170Z,8.00
2024-02-21T11:30:28.631Z,5.68
2024-02-21T11:33:31.290Z,4.30
2024-02-21T11:36:33.667Z,5.70
2024-02-21T11:39:36.597Z,6.18
2024-02-21T11:42:38.797Z,4.43
2024-02-21T11:45:41.561Z,4.28
2024-02-21T11:48:51.489Z,4.45
2024-02-21T11:52:02.320Z,5.22
2024-02-21T11:55:06.856Z,4.25
2024-02-21T11:58:09.883Z,6.50
2024-02-21T12:01:12.352Z,3.00
2024-02-21T12:04:15.229Z,4.30
2024-02-21T12:07:19.667Z,4.03
2024-02-21T12:10:22.544Z,3.53
2024-02-21T12:13:25.792Z,2.75
2024-02-21T12:16:30.473Z,2.65
2024-02-21T12:19:35.360Z,2.80
2024-02-21T12:22:38.432Z,6.68
2024-02-21T12:25:41.234Z,5.68
2024-02-21T12:28:43.907Z,4.13
2024-02-21T12:31:48.047Z,3.08
2024-02-21T12:34:54.297Z,4.07
2024-02-21T12:37:57.247Z,5.45
2024-02-21T12:41:01.843Z,5.75
2024-02-21T12:44:05.242Z,3.97
2024-02-21T12:47:09.812Z,5.80
2024-02-21T12:50:13.161Z,5.80
2024-02-21T12:53:23.190Z,3.08
2024-02-21T12:56:32.311Z,7.93
2024-02-21T12:59:34.949Z,3.72
2024-02-21T13:02:37.289Z,5.50
2024-02-21T13:05:41.157Z,2.70
2024-02-21T13:08:44.790Z,3.97
2024-02-21T13:11:47.558Z,1.50
2024-02-21T13:14:49.868Z,2.97
2024-02-21T13:17:53.211Z,2.05
2024-02-21T13:20:55.431Z,4.32
2024-02-21T13:23:58.297Z,2.63
2024-02-21T13:27:00.661Z,7.85
2024-02-21T13:30:07.050Z,2.90
2024-02-21T13:33:11.366Z,3.85
2024-02-21T13:39:17.108Z,6.93
2024-02-21T13:42:21.479Z,5.63
2024-02-21T13:45:23.680Z,2.85
2024-02-21T13:48:27.080Z,5.78
2024-02-21T13:51:29.612Z,4.88
2024-02-21T13:54:32.182Z,4.07
2024-02-21T13:57:34.800Z,4.20
2024-02-21T14:00:37.874Z,2.35
2024-02-21T14:03:40.213Z,2.50
2024-02-21T14:06:44.885Z,5.55
2024-02-21T14:09:47.677Z,4.57
2024-02-21T14:12:50.865Z,2.22
2024-02-21T14:15:53.423Z,2.75
2024-02-21T14:18:56.186Z,4.50
2024-02-21T14:21:58.387Z,3.35
2024-02-21T14:25:01.998Z,3.50
2024-02-21T14:28:04.655Z,3.08
2024-02-21T14:31:10.620Z,2.58
2024-02-21T14:34:13.321Z,2.42
2024-02-21T14:37:16.386Z,5.05
2024-02-21T14:40:20.730Z,2.95
2024-02-21T14:43:23.707Z,2.47
2024-02-21T14:46:25.986Z,2.83
2024-02-21T14:49:30.096Z,3.55
2024-02-21T14:52:34.538Z,3.10
2024-02-21T14:55:37.556Z,3.15
2024-02-21T14:58:40.455Z,1.88
2024-02-21T15:01:43.699Z,2.28
2024-02-21T15:04:46.127Z,1.88
2024-02-21T15:07:49.232Z,2.92
2024-02-21T15:10:52.216Z,2.28
2024-02-21T15:13:55.189Z,3.63
2024-02-21T15:16:57.945Z,1.90
2024-02-21T15:20:01.838Z,3.38
2024-02-21T15:23:06.601Z,3.75
2024-02-21T15:26:10.169Z,2.75
2024-02-21T15:29:12.908Z,2.05
2024-02-21T15:32:15.665Z,4.75
2024-02-21T15:35:18.526Z,2.60
2024-02-21T15:38:21.488Z,2.97
2024-02-21T15:41:23.754Z,5.75
2024-02-21T15:44:26.305Z,2.53
2024-02-21T15:47:29.649Z,2.50
2024-02-21T15:50:32.930Z,3.93
2024-02-21T15:53:35.712Z,3.38
2024-02-21T15:56:38.196Z,5.30
2024-02-21T15:59:41.036Z,2.67
2024-02-21T16:02:45.018Z,2.95
2024-02-21T16:05:47.407Z,2.07
2024-02-21T16:08:51.664Z,3.50
2024-02-21T16:11:54.310Z,3.10
2024-02-21T16:14:57.005Z,4.57
2024-02-21T16:18:00.127Z,3.78
2024-02-21T16:21:03.881Z,1.95
2024-02-21T16:24:07.204Z,2.67
2024-02-21T16:27:12.731Z,4.53
2024-02-21T16:30:16.062Z,3.60
2024-02-21T16:33:18.965Z,1.63
2024-02-21T16:36:25.796Z,3.22
2024-02-21T16:39:29.545Z,2.83
2024-02-21T16:42:32.659Z,2.55
2024-02-21T16:45:35.694Z,1.88
2024-02-21T16:48:37.918Z,4.05
2024-02-21T16:51:40.531Z,3.45
2024-02-21T16:54:42.888Z,4.90
2024-02-21T16:57:45.750Z,1.80
2024-02-21T17:00:49.737Z,3.92
2024-02-21T17:03:53.523Z,3.47
2024-02-21T17:06:57.396Z,2.78
2024-02-21T17:10:00.499Z,2.90
2024-02-21T17:13:06.062Z,5.35
2024-02-21T17:16:10.772Z,2.17
2024-02-21T17:22:16.049Z,2.17
2024-02-21T17:25:19.044Z,4.15
2024-02-21T17:28:22.005Z,2.47
2024-02-21T17:31:24.281Z,4.32
2024-02-21T17:34:27.047Z,2.78
2024-02-21T17:37:29.469Z,1.92
2024-02-21T17:40:33.128Z,2.10
2024-02-21T17:43:35.810Z,2.08
2024-02-21T17:46:45.139Z,2.65
2024-02-21T17:49:48.519Z,2.05
2024-02-21T17:52:51.700Z,2.50
2024-02-21T17:55:56.668Z,2.25
2024-02-21T17:58:59.591Z,2.63
2024-02-21T18:02:01.982Z,1.83
2024-02-21T18:05:05.749Z,2.28
2024-02-21T18:08:10.941Z,5.20
2024-02-21T18:11:14.354Z,3.55
2024-02-21T18:14:19.031Z,2.70
2024-02-21T18:17:21.680Z,1.52
2024-02-21T18:20:25.737Z,2.33
2024-02-21T18:23:31.064Z,2.53
2024-02-21T18:26:33.729Z,2.42
2024-02-21T18:29:39.883Z,2.72
2024-02-21T18:32:43.406Z,2.65
2024-02-21T18:35:46.420Z,2.92
2024-02-21T18:38:48.679Z,1.83
2024-02-21T18:41:51.606Z,3.08
2024-02-21T18:44:55.833Z,2.80
2024-02-21T18:47:58.511Z,1.48
2024-02-21T18:51:01.198Z,1.38
2024-02-21T18:54:05.436Z,2.17
2024-02-21T18:57:07.637Z,2.20
2024-02-21T19:00:14.508Z,2.28
2024-02-21T19:03:16.693Z,3.30
2024-02-21T19:06:20.834Z,1.27
2024-02-21T19:09:24.807Z,1.30
2024-02-21T19:12:32.607Z,3.75
2024-02-21T19:15:36.620Z,3.38
2024-02-21T19:18:40.127Z,3.15
2024-02-21T19:21:43.835Z,4.07
2024-02-21T19:24:46.687Z,2.75
2024-02-21T19:27:49.147Z,2.88
2024-02-21T19:30:52.313Z,1.40
2024-02-21T19:33:56.548Z,1.48
2024-02-21T19:40:03.602Z,5.22
2024-02-21T19:46:11.943Z,1.70
2024-02-21T19:49:14.814Z,1.92
2024-02-21T19:52:17.194Z,1.30
2024-02-21T19:55:19.940Z,2.13
2024-02-21T19:58:22.097Z,1.45
2024-02-21T20:01:24.783Z,1.10
2024-02-21T20:04:27.145Z,1.58
2024-02-21T20:07:29.852Z,1.60
2024-02-21T20:10:32.201Z,1.42
2024-02-21T20:13:36.545Z,2.45
2024-02-21T20:16:39.004Z,0.93
2024-02-21T20:19:41.711Z,1.08
2024-02-21T20:22:43.948Z,2.10
2024-02-21T20:25:46.989Z,0.70
2024-02-21T20:28:49.595Z,1.45
2024-02-21T20:31:52.432Z,1.65
2024-02-21T20:34:54.833Z,2.60
2024-02-21T20:37:57.466Z,2.25
2024-02-21T20:40:59.854Z,0.98
2024-02-21T20:44:02.499Z,1.77
2024-02-21T20:47:05.006Z,1.25
2024-02-21T20:50:07.912Z,1.50
2024-02-21T20:53:10.309Z,1.77
2024-02-21T20:56:13.506Z,0.90
2024-02-21T20:59:16.289Z,0.70
2024-02-21T21:02:19.279Z,3.53
2024-02-21T21:05:22.007Z,1.27
2024-02-21T21:08:24.934Z,1.55
2024-02-21T21:11:35.300Z,1.15
2024-02-21T21:14:41.362Z,1.08
2024-02-21T21:17:43.851Z,1.08
2024-02-21T21:20:46.671Z,1.10
2024-02-21T21:23:48.817Z,1.48
2024-02-21T21:26:52.314Z,1.52
2024-02-21T21:29:54.555Z,1.38
2024-02-21T21:32:58.991Z,0.93
2024-02-21T21:39:08.621Z,0.80
2024-02-21T21:42:11.239Z,1.10
2024-02-21T21:45:14.737Z,0.82
2024-02-21T21:48:17.370Z,1.40
2024-02-21T21:51:21.084Z,0.73
2024-02-21T21:54:23.580Z,0.65
2024-02-21T21:57:26.031Z,1.20
2024-02-21T22:00:28.757Z,0.80
2024-02-21T22:03:31.394Z,0.90
2024-02-21T22:06:33.784Z,0.98
2024-02-21T22:09:36.624Z,1.20
2024-02-21T22:12:39.000Z,0.70
2024-02-21T22:15:42.472Z,0.98
2024-02-21T22:18:44.746Z,0.40
2024-02-21T22:21:47.952Z,1.10
2024-02-21T22:24:51.640Z,0.40
2024-02-21T22:27:54.390Z,1.30
2024-02-21T22:30:56.714Z,0.93
2024-02-21T22:33:59.551Z,1.95
2024-02-21T22:37:02.139Z,1.85
2024-02-21T22:40:05.721Z,0.52
2024-02-21T22:43:09.936Z,0.60
2024-02-21T22:49:15.147Z,0.45
2024-02-21T22:52:18.476Z,0.50
2024-02-21T22:55:20.618Z,0.93
2024-02-21T22:58:23.261Z,0.43
2024-02-21T23:01:26.769Z,0.50
2024-02-21T23:04:29.656Z,0.45
2024-02-21T23:07:32.859Z,0.45
2024-02-21T23:10:36.095Z,0.40
2024-02-21T23:13:38.987Z,0.63
2024-02-21T23:16:41.575Z,0.77
2024-02-21T23:19:44.707Z,0.40
2024-02-21T23:22:47.612Z,0.57
2024-02-21T23:25:49.929Z,0.35
2024-02-21T23:28:52.828Z,0.73
2024-02-21T23:31:55.387Z,0.85
2024-02-21T23:35:00.197Z,0.50
2024-02-21T23:38:06.777Z,0.40
2024-02-21T23:41:09.604Z,0.55
2024-02-21T23:44:12.970Z,0.30
2024-02-21T23:47:15.935Z,0.70
2024-02-21T23:50:18.146Z,0.32
2024-02-21T23:53:21.044Z,0.47
2024-02-21T23:56:23.226Z,0.30
2024-02-21T23:59:25.689Z,0.30
